pizzahut.jp alexa rank chart, pizzahut.jp alexa rank daily changes

pizzahut.jp alexa rank chart, pizzahut.jp alexa rank daily changes

pizzahut.jp
Actual rank:
45 713

RANK HISTORY

Date Rank Diff
2018/02/21 45 713 +25 075
2018/02/20 20 638 -14 921
2018/02/19 35 559 -2 042
2018/02/18 37 601 +12 009
2018/02/17 25 592 -4 849
2018/02/16 30 441 -133 023
2018/02/15 163 464 +126 332
2018/02/14 37 132 +22 499
2018/02/13 14 633 +501
2018/02/12 14 132 -32 639
2018/02/11 46 771 -3 448
2018/02/10 50 219 -35 658
2018/02/09 85 877 -27 143
2018/02/08 113 020 +55 107
2018/02/07 57 913 +39 277
2018/02/06 18 636 +686
2018/02/05 17 950 -50 728
2018/02/04 68 678 +8 639
2018/02/03 60 039 +7 171
2018/02/02 52 868 -59 616
2018/02/01 112 484 +81 146
2018/01/31 31 338 +2 678
2018/01/30 28 660 -1 419
2018/01/29 30 079 -2 082
2018/01/28 32 161 -1 235
2018/01/27 33 396 +257
2018/01/26 33 139 +2 462
2018/01/25 30 677 +2 631
2018/01/24 28 046 -739
2018/01/23 28 785 -519
2018/01/22 29 304 -1 200
2018/01/21 30 504 -369
2018/01/20 30 873 +235
2018/01/19 30 638 +659
2018/01/18 29 979 +538
2018/01/17 29 441 +758
2018/01/16 28 683 -634
2018/01/15 29 317 -1 093
2018/01/14 30 410 +103
2018/01/13 30 307 +296
2018/01/12 30 011 -985
2018/01/11 30 996 +2 195
2018/01/10 28 801 +75
2018/01/09 28 726 +802
2018/01/08 27 924 -455
2018/01/07 28 379 +227
2018/01/06 28 152 -258
2018/01/05 28 410 -957
2018/01/04 29 367 +269
2018/01/03 29 098 -840
2018/01/02 29 938 -730
2018/01/01 30 668 -1 880
2017/12/31 32 548 -1 558
2017/12/30 34 106 -579
2017/12/29 34 685 +1 079
2017/12/28 33 606 +367
2017/12/27 33 239 -529
2017/12/26 33 768 -3 242
2017/12/25 37 010 -562
2017/12/24 37 572 +672
2017/12/23 36 900

WIDGET FOR YOUR SITE

DOMAINS WITH THE NEAREST RANK

Domain Rank
rich-birds.org 45 708
cellc.co.za 45 709
paidviewpoint.com 45 710
hr-s.jp 45 711
kawai.jp 45 712
pizzahut.jp 45 713
speedav.com 45 714
the-amigos.com 45 715
xn--hentaienespaol-1nb.net 45 716
dash.org 45 717
schneider-electric.fr 45 718

DOMAINS WITH THE NEAREST RANK BY TLD .jp

Domain Rank
supermm.jp 45 270
shopping-charm.jp 45 481
coinpost.jp 45 538
hr-s.jp 45 711
kawai.jp 45 712
pizzahut.jp 45 713
appbu.jp 45 727
aviationwire.jp 45 728
dntl.jp 45 733
getginger.jp 45 739
isenpai.jp 45 747